sensor_id;sensor_type;location;lat;lon;timestamp;P1;durP1;ratioP1;P2;durP2;ratioP2
3591;SDS011;1810;48.720;9.094;2023-07-22T00:02:06;160.05;;;153.43;;
3591;SDS011;1810;48.720;9.094;2023-07-22T00:04:34;188.05;;;180.43;;
3591;SDS011;1810;48.720;9.094;2023-07-22T00:07:05;105.07;;;100.68;;
3591;SDS011;1810;48.720;9.094;2023-07-22T00:09:34;104.00;;;99.47;;
3591;SDS011;1810;48.720;9.094;2023-07-22T00:12:03;158.52;;;151.88;;
3591;SDS011;1810;48.720;9.094;2023-07-22T00:14:33;163.95;;;157.27;;
3591;SDS011;1810;48.720;9.094;2023-07-22T00:17:03;201.95;;;193.75;;
3591;SDS011;1810;48.720;9.094;2023-07-22T00:19:32;110.20;;;105.35;;
3591;SDS011;1810;48.720;9.094;2023-07-22T00:22:01;93.72;;;89.65;;
3591;SDS011;1810;48.720;9.094;2023-07-22T00:24:31;160.82;;;154.18;;
3591;SDS011;1810;48.720;9.094;2023-07-22T00:27:00;161.73;;;155.05;;
3591;SDS011;1810;48.720;9.094;2023-07-22T00:29:28;104.80;;;100.38;;
3591;SDS011;1810;48.720;9.094;2023-07-22T00:31:57;130.05;;;124.60;;
3591;SDS011;1810;48.720;9.094;2023-07-22T00:34:25;184.35;;;176.85;;
3591;SDS011;1810;48.720;9.094;2023-07-22T00:36:54;113.82;;;108.93;;
3591;SDS011;1810;48.720;9.094;2023-07-22T00:39:22;122.00;;;116.78;;
3591;SDS011;1810;48.720;9.094;2023-07-22T00:41:52;99.80;;;95.30;;
3591;SDS011;1810;48.720;9.094;2023-07-22T00:44:21;93.57;;;89.53;;
3591;SDS011;1810;48.720;9.094;2023-07-22T00:46:49;116.00;;;111.13;;
3591;SDS011;1810;48.720;9.094;2023-07-22T00:49:20;82.88;;;79.22;;
3591;SDS011;1810;48.720;9.094;2023-07-22T00:51:50;73.13;;;69.90;;
3591;SDS011;1810;48.720;9.094;2023-07-22T00:54:18;76.72;;;73.43;;
3591;SDS011;1810;48.720;9.094;2023-07-22T00:56:47;80.22;;;76.80;;
3591;SDS011;1810;48.720;9.094;2023-07-22T00:59:17;75.20;;;71.85;;
3591;SDS011;1810;48.720;9.094;2023-07-22T01:01:46;66.97;;;64.10;;
3591;SDS011;1810;48.720;9.094;2023-07-22T01:04:15;85.65;;;81.63;;
3591;SDS011;1810;48.720;9.094;2023-07-22T01:06:45;77.28;;;73.95;;
3591;SDS011;1810;48.720;9.094;2023-07-22T01:09:14;67.47;;;64.22;;
3591;SDS011;1810;48.720;9.094;2023-07-22T01:11:43;74.32;;;71.13;;
3591;SDS011;1810;48.720;9.094;2023-07-22T01:14:12;80.85;;;77.32;;
3591;SDS011;1810;48.720;9.094;2023-07-22T01:16:41;65.90;;;62.95;;
3591;SDS011;1810;48.720;9.094;2023-07-22T01:19:11;74.80;;;71.47;;
3591;SDS011;1810;48.720;9.094;2023-07-22T01:21:41;76.03;;;72.72;;
3591;SDS011;1810;48.720;9.094;2023-07-22T01:24:12;70.90;;;67.75;;
3591;SDS011;1810;48.720;9.094;2023-07-22T01:26:41;97.30;;;93.10;;
3591;SDS011;1810;48.720;9.094;2023-07-22T01:29:10;85.95;;;82.25;;
3591;SDS011;1810;48.720;9.094;2023-07-22T01:31:38;81.05;;;77.53;;
3591;SDS011;1810;48.720;9.094;2023-07-22T01:34:07;122.03;;;117.03;;
3591;SDS011;1810;48.720;9.094;2023-07-22T01:36:36;145.93;;;139.75;;
3591;SDS011;1810;48.720;9.094;2023-07-22T01:39:05;144.82;;;138.90;;
3591;SDS011;1810;48.720;9.094;2023-07-22T01:41:35;103.18;;;98.85;;
3591;SDS011;1810;48.720;9.094;2023-07-22T01:44:04;88.03;;;84.22;;
3591;SDS011;1810;48.720;9.094;2023-07-22T01:46:32;80.93;;;77.38;;
3591;SDS011;1810;48.720;9.094;2023-07-22T01:49:04;78.43;;;74.97;;
3591;SDS011;1810;48.720;9.094;2023-07-22T01:51:35;80.60;;;77.03;;
3591;SDS011;1810;48.720;9.094;2023-07-22T01:54:04;87.75;;;83.78;;
3591;SDS011;1810;48.720;9.094;2023-07-22T01:56:32;97.03;;;92.80;;
3591;SDS011;1810;48.720;9.094;2023-07-22T01:59:03;210.13;;;201.43;;
3591;SDS011;1810;48.720;9.094;2023-07-22T02:01:32;130.60;;;125.13;;
3591;SDS011;1810;48.720;9.094;2023-07-22T02:04:00;91.18;;;87.22;;
3591;SDS011;1810;48.720;9.094;2023-07-22T02:06:29;75.43;;;72.15;;
3591;SDS011;1810;48.720;9.094;2023-07-22T02:08:57;87.03;;;83.18;;
3591;SDS011;1810;48.720;9.094;2023-07-22T02:11:26;74.65;;;70.95;;
3591;SDS011;1810;48.720;9.094;2023-07-22T02:13:55;135.00;;;129.43;;
3591;SDS011;1810;48.720;9.094;2023-07-22T02:16:24;169.50;;;162.50;;
3591;SDS011;1810;48.720;9.094;2023-07-22T02:18:53;135.55;;;129.98;;
3591;SDS011;1810;48.720;9.094;2023-07-22T02:21:23;155.32;;;148.85;;
3591;SDS011;1810;48.720;9.094;2023-07-22T02:23:51;163.38;;;156.52;;
3591;SDS011;1810;48.720;9.094;2023-07-22T02:26:20;201.70;;;193.40;;
3591;SDS011;1810;48.720;9.094;2023-07-22T02:28:49;149.05;;;142.77;;
3591;SDS011;1810;48.720;9.094;2023-07-22T02:31:17;117.03;;;112.00;;
3591;SDS011;1810;48.720;9.094;2023-07-22T02:33:49;92.25;;;88.32;;
3591;SDS011;1810;48.720;9.094;2023-07-22T02:36:18;96.70;;;92.53;;
3591;SDS011;1810;48.720;9.094;2023-07-22T02:38:46;118.40;;;113.18;;
3591;SDS011;1810;48.720;9.094;2023-07-22T02:41:15;91.68;;;87.72;;
3591;SDS011;1810;48.720;9.094;2023-07-22T02:43:44;150.60;;;144.43;;
3591;SDS011;1810;48.720;9.094;2023-07-22T02:46:13;124.68;;;119.47;;
3591;SDS011;1810;48.720;9.094;2023-07-22T02:48:41;110.90;;;106.30;;
3591;SDS011;1810;48.720;9.094;2023-07-22T02:51:11;115.50;;;110.50;;
3591;SDS011;1810;48.720;9.094;2023-07-22T02:53:40;87.82;;;84.03;;
3591;SDS011;1810;48.720;9.094;2023-07-22T02:56:10;135.15;;;129.52;;
3591;SDS011;1810;48.720;9.094;2023-07-22T02:58:39;92.32;;;88.43;;
3591;SDS011;1810;48.720;9.094;2023-07-22T03:01:09;120.40;;;115.28;;
3591;SDS011;1810;48.720;9.094;2023-07-22T03:03:38;94.15;;;90.10;;
3591;SDS011;1810;48.720;9.094;2023-07-22T03:06:07;165.88;;;158.85;;
3591;SDS011;1810;48.720;9.094;2023-07-22T03:08:38;187.45;;;179.77;;
3591;SDS011;1810;48.720;9.094;2023-07-22T03:11:07;186.90;;;179.27;;
3591;SDS011;1810;48.720;9.094;2023-07-22T03:13:35;198.75;;;190.48;;
3591;SDS011;1810;48.720;9.094;2023-07-22T03:16:04;108.32;;;103.78;;
3591;SDS011;1810;48.720;9.094;2023-07-22T03:18:32;222.10;;;212.95;;
3591;SDS011;1810;48.720;9.094;2023-07-22T03:21:01;153.63;;;147.35;;
3591;SDS011;1810;48.720;9.094;2023-07-22T03:23:30;220.40;;;211.45;;
3591;SDS011;1810;48.720;9.094;2023-07-22T03:26:00;84.85;;;81.20;;
3591;SDS011;1810;48.720;9.094;2023-07-22T03:28:29;83.22;;;79.53;;
3591;SDS011;1810;48.720;9.094;2023-07-22T03:30:57;123.72;;;118.50;;
3591;SDS011;1810;48.720;9.094;2023-07-22T03:33:27;244.98;;;235.00;;
3591;SDS011;1810;48.720;9.094;2023-07-22T03:35:56;228.18;;;218.80;;
3591;SDS011;1810;48.720;9.094;2023-07-22T03:38:24;183.82;;;176.35;;
3591;SDS011;1810;48.720;9.094;2023-07-22T03:40:53;219.00;;;209.95;;
3591;SDS011;1810;48.720;9.094;2023-07-22T03:43:22;240.23;;;230.48;;
3591;SDS011;1810;48.720;9.094;2023-07-22T03:45:51;191.10;;;183.23;;
3591;SDS011;1810;48.720;9.094;2023-07-22T03:48:19;223.68;;;214.65;;
3591;SDS011;1810;48.720;9.094;2023-07-22T03:50:48;129.25;;;123.80;;
3591;SDS011;1810;48.720;9.094;2023-07-22T03:53:25;145.18;;;139.07;;
3591;SDS011;1810;48.720;9.094;2023-07-22T03:55:53;233.05;;;223.55;;
3591;SDS011;1810;48.720;9.094;2023-07-22T03:58:23;94.90;;;90.88;;
3591;SDS011;1810;48.720;9.094;2023-07-22T04:00:52;100.82;;;96.43;;
3591;SDS011;1810;48.720;9.094;2023-07-22T04:03:20;227.70;;;218.38;;
3591;SDS011;1810;48.720;9.094;2023-07-22T04:05:55;264.95;;;254.27;;
3591;SDS011;1810;48.720;9.094;2023-07-22T04:08:24;262.13;;;251.60;;
3591;SDS011;1810;48.720;9.094;2023-07-22T04:10:53;256.25;;;245.85;;
3591;SDS011;1810;48.720;9.094;2023-07-22T04:13:24;255.63;;;245.20;;
3591;SDS011;1810;48.720;9.094;2023-07-22T04:15:53;253.65;;;243.38;;
3591;SDS011;1810;48.720;9.094;2023-07-22T04:18:22;256.30;;;245.82;;
3591;SDS011;1810;48.720;9.094;2023-07-22T04:20:55;283.20;;;271.30;;
3591;SDS011;1810;48.720;9.094;2023-07-22T04:23:24;263.83;;;253.20;;
3591;SDS011;1810;48.720;9.094;2023-07-22T04:25:53;289.35;;;277.42;;
3591;SDS011;1810;48.720;9.094;2023-07-22T04:28:22;270.05;;;259.05;;
3591;SDS011;1810;48.720;9.094;2023-07-22T04:30:54;317.42;;;304.02;;
3591;SDS011;1810;48.720;9.094;2023-07-22T04:33:24;348.45;;;333.48;;
3591;SDS011;1810;48.720;9.094;2023-07-22T04:35:54;370.63;;;354.50;;
3591;SDS011;1810;48.720;9.094;2023-07-22T04:38:23;418.38;;;399.60;;
3591;SDS011;1810;48.720;9.094;2023-07-22T04:40:52;447.02;;;426.65;;
3591;SDS011;1810;48.720;9.094;2023-07-22T04:43:20;546.30;;;519.03;;
3591;SDS011;1810;48.720;9.094;2023-07-22T04:45:50;607.22;;;575.00;;
3591;SDS011;1810;48.720;9.094;2023-07-22T04:48:20;595.63;;;564.13;;
3591;SDS011;1810;48.720;9.094;2023-07-22T04:50:49;579.75;;;549.38;;
3591;SDS011;1810;48.720;9.094;2023-07-22T04:53:21;629.40;;;594.40;;
3591;SDS011;1810;48.720;9.094;2023-07-22T04:55:49;658.67;;;621.55;;
3591;SDS011;1810;48.720;9.094;2023-07-22T04:58:18;681.33;;;641.67;;
3591;SDS011;1810;48.720;9.094;2023-07-22T05:00:46;672.80;;;633.85;;
3591;SDS011;1810;48.720;9.094;2023-07-22T05:03:17;664.15;;;625.85;;
3591;SDS011;1810;48.720;9.094;2023-07-22T05:05:46;660.25;;;622.33;;
3591;SDS011;1810;48.720;9.094;2023-07-22T05:08:21;611.63;;;578.10;;
3591;SDS011;1810;48.720;9.094;2023-07-22T05:11:11;636.70;;;600.90;;
3591;SDS011;1810;48.720;9.094;2023-07-22T05:13:54;650.33;;;613.83;;
3591;SDS011;1810;48.720;9.094;2023-07-22T05:16:26;673.13;;;634.03;;
3591;SDS011;1810;48.720;9.094;2023-07-22T05:19:04;661.15;;;623.20;;
3591;SDS011;1810;48.720;9.094;2023-07-22T05:21:37;653.67;;;615.92;;
3591;SDS011;1810;48.720;9.094;2023-07-22T05:24:09;669.28;;;630.13;;
3591;SDS011;1810;48.720;9.094;2023-07-22T05:26:40;680.58;;;640.83;;
3591;SDS011;1810;48.720;9.094;2023-07-22T05:29:34;686.17;;;645.03;;
3591;SDS011;1810;48.720;9.094;2023-07-22T05:32:21;682.92;;;642.17;;
3591;SDS011;1810;48.720;9.094;2023-07-22T05:35:02;685.45;;;644.25;;
3591;SDS011;1810;48.720;9.094;2023-07-22T05:37:32;721.63;;;677.88;;
3591;SDS011;1810;48.720;9.094;2023-07-22T05:40:03;674.83;;;635.15;;
3591;SDS011;1810;48.720;9.094;2023-07-22T05:42:38;668.67;;;629.63;;
3591;SDS011;1810;48.720;9.094;2023-07-22T05:45:10;649.15;;;611.58;;
3591;SDS011;1810;48.720;9.094;2023-07-22T05:47:42;642.60;;;606.00;;
3591;SDS011;1810;48.720;9.094;2023-07-22T05:50:12;642.85;;;606.53;;
3591;SDS011;1810;48.720;9.094;2023-07-22T05:52:41;626.85;;;591.67;;
3591;SDS011;1810;48.720;9.094;2023-07-22T05:55:10;619.17;;;584.90;;
3591;SDS011;1810;48.720;9.094;2023-07-22T05:57:38;614.40;;;580.58;;
3591;SDS011;1810;48.720;9.094;2023-07-22T06:00:07;625.65;;;590.72;;
3591;SDS011;1810;48.720;9.094;2023-07-22T06:02:39;617.13;;;583.03;;
3591;SDS011;1810;48.720;9.094;2023-07-22T06:05:08;616.20;;;581.83;;
3591;SDS011;1810;48.720;9.094;2023-07-22T06:07:38;558.35;;;529.38;;
3591;SDS011;1810;48.720;9.094;2023-07-22T06:10:06;545.08;;;517.15;;
3591;SDS011;1810;48.720;9.094;2023-07-22T06:12:36;577.05;;;546.00;;
3591;SDS011;1810;48.720;9.094;2023-07-22T06:15:08;489.60;;;465.35;;
3591;SDS011;1810;48.720;9.094;2023-07-22T06:17:39;466.88;;;444.00;;
3591;SDS011;1810;48.720;9.094;2023-07-22T06:20:11;432.70;;;412.38;;
3591;SDS011;1810;48.720;9.094;2023-07-22T06:22:47;394.73;;;376.75;;
3591;SDS011;1810;48.720;9.094;2023-07-22T06:25:29;371.05;;;354.67;;
3591;SDS011;1810;48.720;9.094;2023-07-22T06:27:57;329.42;;;315.25;;
3591;SDS011;1810;48.720;9.094;2023-07-22T06:30:26;310.77;;;297.63;;
3591;SDS011;1810;48.720;9.094;2023-07-22T06:32:55;304.23;;;291.52;;
3591;SDS011;1810;48.720;9.094;2023-07-22T06:35:23;290.80;;;278.42;;
3591;SDS011;1810;48.720;9.094;2023-07-22T06:37:54;322.13;;;308.30;;
3591;SDS011;1810;48.720;9.094;2023-07-22T06:40:23;375.83;;;359.02;;
3591;SDS011;1810;48.720;9.094;2023-07-22T06:42:51;436.77;;;416.10;;
3591;SDS011;1810;48.720;9.094;2023-07-22T06:45:20;506.88;;;481.50;;
3591;SDS011;1810;48.720;9.094;2023-07-22T06:47:49;564.13;;;534.33;;
3591;SDS011;1810;48.720;9.094;2023-07-22T06:50:18;576.30;;;545.40;;
3591;SDS011;1810;48.720;9.094;2023-07-22T06:52:47;603.75;;;570.45;;
3591;SDS011;1810;48.720;9.094;2023-07-22T06:55:17;589.78;;;557.88;;
3591;SDS011;1810;48.720;9.094;2023-07-22T06:57:48;594.80;;;562.65;;
3591;SDS011;1810;48.720;9.094;2023-07-22T07:03:26;546.72;;;518.00;;
3591;SDS011;1810;48.720;9.094;2023-07-22T07:06:17;556.83;;;527.58;;
3591;SDS011;1810;48.720;9.094;2023-07-22T07:15:25;586.50;;;555.00;;
3591;SDS011;1810;48.720;9.094;2023-07-22T07:17:53;610.00;;;576.50;;
3591;SDS011;1810;48.720;9.094;2023-07-22T07:20:22;695.70;;;654.10;;
3591;SDS011;1810;48.720;9.094;2023-07-22T07:22:50;581.97;;;551.20;;
3591;SDS011;1810;48.720;9.094;2023-07-22T07:25:19;592.42;;;560.47;;
3591;SDS011;1810;48.720;9.094;2023-07-22T07:27:48;583.58;;;552.45;;
3591;SDS011;1810;48.720;9.094;2023-07-22T07:30:18;604.22;;;571.55;;
3591;SDS011;1810;48.720;9.094;2023-07-22T07:32:47;580.28;;;549.42;;
3591;SDS011;1810;48.720;9.094;2023-07-22T07:35:16;602.40;;;569.33;;
3591;SDS011;1810;48.720;9.094;2023-07-22T07:37:45;590.13;;;558.78;;
3591;SDS011;1810;48.720;9.094;2023-07-22T07:40:14;632.10;;;597.10;;
3591;SDS011;1810;48.720;9.094;2023-07-22T07:42:43;591.17;;;559.65;;
3591;SDS011;1810;48.720;9.094;2023-07-22T07:45:12;580.97;;;549.97;;
3591;SDS011;1810;48.720;9.094;2023-07-22T07:47:42;604.17;;;571.50;;
3591;SDS011;1810;48.720;9.094;2023-07-22T07:50:11;595.75;;;563.88;;
3591;SDS011;1810;48.720;9.094;2023-07-22T07:52:39;595.47;;;563.42;;
3591;SDS011;1810;48.720;9.094;2023-07-22T07:55:08;598.65;;;566.42;;
3591;SDS011;1810;48.720;9.094;2023-07-22T07:57:36;605.55;;;572.85;;
3591;SDS011;1810;48.720;9.094;2023-07-22T08:00:05;643.72;;;607.45;;
3591;SDS011;1810;48.720;9.094;2023-07-22T08:02:35;602.83;;;570.40;;
3591;SDS011;1810;48.720;9.094;2023-07-22T08:05:06;585.90;;;554.60;;
3591;SDS011;1810;48.720;9.094;2023-07-22T08:07:35;587.42;;;556.03;;
3591;SDS011;1810;48.720;9.094;2023-07-22T08:10:04;610.95;;;577.72;;
3591;SDS011;1810;48.720;9.094;2023-07-22T08:12:35;593.72;;;561.85;;
3591;SDS011;1810;48.720;9.094;2023-07-22T08:15:04;620.17;;;586.33;;
3591;SDS011;1810;48.720;9.094;2023-07-22T08:17:34;601.28;;;569.05;;
3591;SDS011;1810;48.720;9.094;2023-07-22T08:20:03;587.45;;;556.15;;
3591;SDS011;1810;48.720;9.094;2023-07-22T08:26:36;590.63;;;558.65;;
3591;SDS011;1810;48.720;9.094;2023-07-22T08:41:00;710.30;;;666.77;;
3591;SDS011;1810;48.720;9.094;2023-07-22T08:47:35;672.33;;;633.20;;
3591;SDS011;1810;48.720;9.094;2023-07-22T08:50:13;718.47;;;673.70;;
3591;SDS011;1810;48.720;9.094;2023-07-22T08:52:43;708.92;;;665.00;;
3591;SDS011;1810;48.720;9.094;2023-07-22T08:55:12;737.08;;;691.20;;
3591;SDS011;1810;48.720;9.094;2023-07-22T08:57:43;689.60;;;648.70;;
3591;SDS011;1810;48.720;9.094;2023-07-22T09:00:14;677.85;;;637.42;;
3591;SDS011;1810;48.720;9.094;2023-07-22T09:02:43;675.70;;;635.70;;
3591;SDS011;1810;48.720;9.094;2023-07-22T09:05:18;661.97;;;623.30;;
3591;SDS011;1810;48.720;9.094;2023-07-22T09:07:46;669.05;;;629.83;;
3591;SDS011;1810;48.720;9.094;2023-07-22T09:10:15;686.45;;;645.40;;
3591;SDS011;1810;48.720;9.094;2023-07-22T09:12:46;718.55;;;674.47;;
3591;SDS011;1810;48.720;9.094;2023-07-22T09:15:15;662.83;;;623.90;;
3591;SDS011;1810;48.720;9.094;2023-07-22T09:17:45;743.88;;;695.67;;
3591;SDS011;1810;48.720;9.094;2023-07-22T09:20:15;677.17;;;636.78;;
3591;SDS011;1810;48.720;9.094;2023-07-22T09:22:44;729.55;;;684.17;;
3591;SDS011;1810;48.720;9.094;2023-07-22T09:25:22;674.17;;;634.63;;
3591;SDS011;1810;48.720;9.094;2023-07-22T09:27:54;697.30;;;654.80;;
3591;SDS011;1810;48.720;9.094;2023-07-22T09:30:26;697.53;;;654.77;;
3591;SDS011;1810;48.720;9.094;2023-07-22T09:32:58;677.13;;;636.45;;
3591;SDS011;1810;48.720;9.094;2023-07-22T09:35:45;705.95;;;663.05;;
3591;SDS011;1810;48.720;9.094;2023-07-22T09:38:22;677.42;;;637.22;;
3591;SDS011;1810;48.720;9.094;2023-07-22T09:40:57;663.15;;;624.55;;
3591;SDS011;1810;48.720;9.094;2023-07-22T09:43:40;729.65;;;683.90;;
3591;SDS011;1810;48.720;9.094;2023-07-22T09:46:16;659.20;;;620.72;;
3591;SDS011;1810;48.720;9.094;2023-07-22T09:48:52;616.10;;;581.92;;
3591;SDS011;1810;48.720;9.094;2023-07-22T09:51:22;658.17;;;619.90;;
3591;SDS011;1810;48.720;9.094;2023-07-22T09:53:59;680.65;;;640.50;;
3591;SDS011;1810;48.720;9.094;2023-07-22T09:56:31;575.20;;;544.50;;
3591;SDS011;1810;48.720;9.094;2023-07-22T09:59:06;596.08;;;563.92;;
3591;SDS011;1810;48.720;9.094;2023-07-22T10:01:35;669.05;;;629.92;;
3591;SDS011;1810;48.720;9.094;2023-07-22T10:04:16;600.95;;;568.15;;
3591;SDS011;1810;48.720;9.094;2023-07-22T10:06:52;606.08;;;572.95;;
3591;SDS011;1810;48.720;9.094;2023-07-22T10:09:32;587.80;;;556.05;;
3591;SDS011;1810;48.720;9.094;2023-07-22T10:12:07;588.20;;;556.65;;
3591;SDS011;1810;48.720;9.094;2023-07-22T10:15:07;571.70;;;541.42;;
3591;SDS011;1810;48.720;9.094;2023-07-22T10:17:40;571.08;;;541.17;;
3591;SDS011;1810;48.720;9.094;2023-07-22T10:20:09;579.75;;;548.42;;
3591;SDS011;1810;48.720;9.094;2023-07-22T10:22:42;592.55;;;560.80;;
3591;SDS011;1810;48.720;9.094;2023-07-22T10:25:14;580.28;;;548.25;;
3591;SDS011;1810;48.720;9.094;2023-07-22T10:27:48;579.25;;;548.63;;
3591;SDS011;1810;48.720;9.094;2023-07-22T10:30:24;585.53;;;553.92;;
3591;SDS011;1810;48.720;9.094;2023-07-22T10:32:55;596.78;;;564.85;;
3591;SDS011;1810;48.720;9.094;2023-07-22T10:35:34;628.25;;;592.47;;
3591;SDS011;1810;48.720;9.094;2023-07-22T10:38:08;648.22;;;610.83;;
3591;SDS011;1810;48.720;9.094;2023-07-22T10:40:44;624.10;;;589.10;;
3591;SDS011;1810;48.720;9.094;2023-07-22T10:43:14;683.17;;;642.13;;
3591;SDS011;1810;48.720;9.094;2023-07-22T10:45:50;669.25;;;629.65;;
3591;SDS011;1810;48.720;9.094;2023-07-22T10:48:20;653.33;;;615.33;;
3591;SDS011;1810;48.720;9.094;2023-07-22T10:51:18;662.78;;;623.88;;
3591;SDS011;1810;48.720;9.094;2023-07-22T10:53:47;680.47;;;639.88;;
3591;SDS011;1810;48.720;9.094;2023-07-22T10:56:18;685.22;;;644.20;;
3591;SDS011;1810;48.720;9.094;2023-07-22T10:58:55;662.55;;;623.60;;
3591;SDS011;1810;48.720;9.094;2023-07-22T11:01:38;623.72;;;588.80;;
3591;SDS011;1810;48.720;9.094;2023-07-22T11:10:17;635.55;;;600.05;;
3591;SDS011;1810;48.720;9.094;2023-07-22T11:47:52;685.30;;;643.97;;
3591;SDS011;1810;48.720;9.094;2023-07-22T11:50:30;655.92;;;617.55;;
3591;SDS011;1810;48.720;9.094;2023-07-22T11:53:00;681.88;;;640.80;;
3591;SDS011;1810;48.720;9.094;2023-07-22T11:55:29;671.33;;;631.53;;
3591;SDS011;1810;48.720;9.094;2023-07-22T11:58:03;663.60;;;624.53;;
3591;SDS011;1810;48.720;9.094;2023-07-22T12:00:37;685.65;;;644.00;;
3591;SDS011;1810;48.720;9.094;2023-07-22T12:03:32;675.33;;;635.35;;
3591;SDS011;1810;48.720;9.094;2023-07-22T12:06:01;705.17;;;660.50;;
3591;SDS011;1810;48.720;9.094;2023-07-22T12:08:30;738.13;;;691.42;;
3591;SDS011;1810;48.720;9.094;2023-07-22T12:10:59;673.65;;;632.22;;
3591;SDS011;1810;48.720;9.094;2023-07-22T12:13:28;637.80;;;601.45;;
3591;SDS011;1810;48.720;9.094;2023-07-22T12:16:02;621.08;;;586.55;;
3591;SDS011;1810;48.720;9.094;2023-07-22T12:18:42;623.05;;;588.28;;
3591;SDS011;1810;48.720;9.094;2023-07-22T12:21:10;630.97;;;593.67;;
3591;SDS011;1810;48.720;9.094;2023-07-22T12:23:40;628.90;;;593.45;;
3591;SDS011;1810;48.720;9.094;2023-07-22T12:26:09;634.10;;;598.63;;
3591;SDS011;1810;48.720;9.094;2023-07-22T12:28:38;609.92;;;575.97;;
3591;SDS011;1810;48.720;9.094;2023-07-22T12:31:06;573.45;;;542.78;;
3591;SDS011;1810;48.720;9.094;2023-07-22T12:33:36;575.42;;;544.92;;
3591;SDS011;1810;48.720;9.094;2023-07-22T12:36:06;566.45;;;536.83;;
3591;SDS011;1810;48.720;9.094;2023-07-22T12:38:35;592.92;;;560.78;;
3591;SDS011;1810;48.720;9.094;2023-07-22T12:41:04;539.60;;;512.00;;
3591;SDS011;1810;48.720;9.094;2023-07-22T12:43:32;536.80;;;509.10;;
3591;SDS011;1810;48.720;9.094;2023-07-22T12:46:01;612.90;;;579.10;;
3591;SDS011;1810;48.720;9.094;2023-07-22T12:48:30;530.30;;;503.23;;
3591;SDS011;1810;48.720;9.094;2023-07-22T12:50:58;538.15;;;510.63;;
3591;SDS011;1810;48.720;9.094;2023-07-22T12:53:28;545.38;;;517.13;;
3591;SDS011;1810;48.720;9.094;2023-07-22T12:55:58;524.08;;;497.40;;
3591;SDS011;1810;48.720;9.094;2023-07-22T12:58:29;570.03;;;539.72;;
3591;SDS011;1810;48.720;9.094;2023-07-22T13:00:58;558.55;;;529.58;;
3591;SDS011;1810;48.720;9.094;2023-07-22T13:03:26;620.50;;;585.15;;
3591;SDS011;1810;48.720;9.094;2023-07-22T13:05:55;541.15;;;513.25;;
3591;SDS011;1810;48.720;9.094;2023-07-22T13:08:24;510.60;;;484.83;;
3591;SDS011;1810;48.720;9.094;2023-07-22T13:10:54;530.63;;;503.63;;
3591;SDS011;1810;48.720;9.094;2023-07-22T13:13:22;540.15;;;512.25;;
3591;SDS011;1810;48.720;9.094;2023-07-22T13:15:51;518.05;;;491.80;;
3591;SDS011;1810;48.720;9.094;2023-07-22T13:18:20;559.72;;;529.85;;
3591;SDS011;1810;48.720;9.094;2023-07-22T13:20:48;527.22;;;500.00;;
3591;SDS011;1810;48.720;9.094;2023-07-22T13:23:17;590.67;;;558.90;;
3591;SDS011;1810;48.720;9.094;2023-07-22T13:25:46;574.28;;;543.45;;
3591;SDS011;1810;48.720;9.094;2023-07-22T13:28:17;593.05;;;560.72;;
3591;SDS011;1810;48.720;9.094;2023-07-22T13:30:50;591.20;;;559.40;;
3591;SDS011;1810;48.720;9.094;2023-07-22T13:33:19;580.75;;;549.58;;
3591;SDS011;1810;48.720;9.094;2023-07-22T13:35:50;578.33;;;547.60;;
3591;SDS011;1810;48.720;9.094;2023-07-22T13:38:19;576.72;;;545.55;;
3591;SDS011;1810;48.720;9.094;2023-07-22T13:40:47;571.53;;;540.95;;
3591;SDS011;1810;48.720;9.094;2023-07-22T13:43:17;618.05;;;583.00;;
3591;SDS011;1810;48.720;9.094;2023-07-22T13:45:46;649.42;;;611.85;;
3591;SDS011;1810;48.720;9.094;2023-07-22T13:48:15;548.13;;;519.58;;
3591;SDS011;1810;48.720;9.094;2023-07-22T13:50:44;555.22;;;526.35;;
3591;SDS011;1810;48.720;9.094;2023-07-22T13:53:13;551.35;;;522.72;;
3591;SDS011;1810;48.720;9.094;2023-07-22T13:55:44;519.10;;;493.02;;
3591;SDS011;1810;48.720;9.094;2023-07-22T14:01:02;560.65;;;531.35;;
3591;SDS011;1810;48.720;9.094;2023-07-22T14:03:31;556.90;;;527.63;;
3591;SDS011;1810;48.720;9.094;2023-07-22T14:06:02;544.00;;;515.70;;
3591;SDS011;1810;48.720;9.094;2023-07-22T14:08:39;566.95;;;536.80;;
3591;SDS011;1810;48.720;9.094;2023-07-22T14:11:11;593.28;;;561.38;;
3591;SDS011;1810;48.720;9.094;2023-07-22T14:13:45;589.20;;;557.78;;
3591;SDS011;1810;48.720;9.094;2023-07-22T14:16:22;569.33;;;538.83;;
3591;SDS011;1810;48.720;9.094;2023-07-22T14:18:51;603.40;;;569.88;;
3591;SDS011;1810;48.720;9.094;2023-07-22T14:21:33;645.60;;;608.22;;
3591;SDS011;1810;48.720;9.094;2023-07-22T14:24:08;632.72;;;596.78;;
3591;SDS011;1810;48.720;9.094;2023-07-22T14:26:37;576.63;;;545.80;;
3591;SDS011;1810;48.720;9.094;2023-07-22T14:29:06;559.42;;;529.92;;
3591;SDS011;1810;48.720;9.094;2023-07-22T14:31:36;582.83;;;551.63;;
3591;SDS011;1810;48.720;9.094;2023-07-22T14:34:05;590.88;;;558.95;;
3591;SDS011;1810;48.720;9.094;2023-07-22T14:36:34;614.90;;;580.33;;
3591;SDS011;1810;48.720;9.094;2023-07-22T14:39:03;601.70;;;568.55;;
3591;SDS011;1810;48.720;9.094;2023-07-22T14:41:32;594.03;;;562.03;;
3591;SDS011;1810;48.720;9.094;2023-07-22T14:44:03;578.75;;;547.47;;
3591;SDS011;1810;48.720;9.094;2023-07-22T14:46:32;581.97;;;550.50;;
3591;SDS011;1810;48.720;9.094;2023-07-22T14:49:03;588.25;;;556.20;;
3591;SDS011;1810;48.720;9.094;2023-07-22T14:51:35;570.38;;;540.08;;
3591;SDS011;1810;48.720;9.094;2023-07-22T14:54:04;573.05;;;542.60;;
3591;SDS011;1810;48.720;9.094;2023-07-22T14:56:33;563.58;;;533.67;;
3591;SDS011;1810;48.720;9.094;2023-07-22T14:59:01;586.42;;;554.65;;
3591;SDS011;1810;48.720;9.094;2023-07-22T15:01:36;658.97;;;620.40;;
3591;SDS011;1810;48.720;9.094;2023-07-22T15:04:06;578.85;;;547.53;;
3591;SDS011;1810;48.720;9.094;2023-07-22T15:06:38;626.97;;;592.38;;
3591;SDS011;1810;48.720;9.094;2023-07-22T15:09:06;609.10;;;575.30;;
3591;SDS011;1810;48.720;9.094;2023-07-22T15:11:35;614.53;;;580.25;;
3591;SDS011;1810;48.720;9.094;2023-07-22T15:14:04;612.00;;;577.97;;
3591;SDS011;1810;48.720;9.094;2023-07-22T15:16:33;604.80;;;571.47;;
3591;SDS011;1810;48.720;9.094;2023-07-22T15:19:02;624.83;;;589.67;;
3591;SDS011;1810;48.720;9.094;2023-07-22T15:21:33;694.33;;;652.63;;
3591;SDS011;1810;48.720;9.094;2023-07-22T15:24:02;603.72;;;570.40;;
3591;SDS011;1810;48.720;9.094;2023-07-22T15:26:31;608.63;;;575.08;;
3591;SDS011;1810;48.720;9.094;2023-07-22T15:29:00;640.35;;;603.67;;
3591;SDS011;1810;48.720;9.094;2023-07-22T15:31:30;622.13;;;587.58;;
3591;SDS011;1810;48.720;9.094;2023-07-22T15:33:58;613.13;;;579.10;;
3591;SDS011;1810;48.720;9.094;2023-07-22T15:36:40;641.13;;;604.80;;
3591;SDS011;1810;48.720;9.094;2023-07-22T15:39:09;602.60;;;569.28;;
3591;SDS011;1810;48.720;9.094;2023-07-22T15:41:43;643.95;;;607.17;;
3591;SDS011;1810;48.720;9.094;2023-07-22T15:44:11;616.10;;;582.03;;
3591;SDS011;1810;48.720;9.094;2023-07-22T15:46:40;586.78;;;555.08;;
3591;SDS011;1810;48.720;9.094;2023-07-22T15:49:08;627.42;;;592.13;;
3591;SDS011;1810;48.720;9.094;2023-07-22T15:51:37;626.65;;;590.90;;
3591;SDS011;1810;48.720;9.094;2023-07-22T15:54:07;629.55;;;594.22;;
3591;SDS011;1810;48.720;9.094;2023-07-22T15:56:35;674.40;;;634.33;;
3591;SDS011;1810;48.720;9.094;2023-07-22T15:59:04;611.38;;;577.55;;